ADDS METAR Data INFO
IDs: Format: Raw Decoded Include TAF

Data at: 1409 UTC 24 Feb 2018

KPTT 241355Z AUTO 33004KT 10SM OVC003 M01/M02 A2988 RMK AO2 T10111018
KPTT 241335Z AUTO 34004KT 10SM OVC003 M01/M02 A2990 RMK AO2 T10121018
KPTT 241315Z AUTO 00000KT 7SM OVC003 M01/M02 A2991 RMK AO2 T10121018
KPTT 241255Z AUTO 36005KT 5SM BR OVC005 M01/M02 A2992 RMK AO2 T10111017
KPTT 241235Z AUTO 36003KT 4SM BR OVC005 M01/M02 A2994 RMK AO2 T10111017
KPTT 241215Z AUTO 35003KT 4SM BR OVC005 M01/M02 A2995 RMK AO2 T10101016
KPTT 241155Z AUTO 34003KT 3SM BR OVC003 M01/M02 A2996 RMK AO2 T10101016 11010 21015
KPTT 241135Z AUTO 35004KT 2SM UP OVC003 M01/M02 A2996 RMK AO2 T10101016
KPTT 241115Z AUTO 34003KT 2SM BR OVC003 M01/M02 A2996 RMK AO2 T10131019
KPTT 241055Z AUTO 01006KT 2SM BR OVC003 M01/M02 A2993 RMK AO2 T10121018
KPTT 241035Z AUTO 02006KT 1 3/4SM BR OVC003 M01/M02 A2992 RMK AO2 T10121018
KPTT 241015Z AUTO 03006KT 1 3/4SM BR OVC003 M01/M02 A2993 RMK AO2 T10121018
KPTT 240955Z AUTO 04005KT 2SM BR OVC003 M01/M02 A2995 RMK AO2 T10121018
KPTT 240935Z AUTO 04005KT 3SM BR OVC003 M01/M02 A2995 RMK AO2 T10111017
KPTT 240915Z AUTO 04004KT 2 1/2SM BR OVC003 M01/M02 A2997 RMK AO2 VIS 2V4 T10121018
KPTT 240855Z AUTO 06005KT 3SM BR OVC003 M01/M02 A2996 RMK AO2 T10121018
KPTT 240835Z AUTO 07005KT 2 1/2SM BR OVC003 M01/M02 A2997 RMK AO2 T10121018
KPTT 240815Z AUTO 07007KT 3SM BR OVC003 M01/M02 A2997 RMK AO2 T10131020
KPTT 240755Z AUTO 07007KT 4SM BR OVC003 M01/M02 A2997 RMK AO2 T10131020
KPTT 240735Z AUTO 06006KT 5SM BR OVC003 M01/M02 A2998 RMK AO2 T10131020
KPTT 240715Z AUTO 06005KT 5SM BR OVC003 M01/M02 A3000 RMK AO2 T10131020
KPTT 240655Z AUTO 06006KT 7SM OVC003 M01/M02 A3002 RMK AO2 LTG DSNT SE T10151021
KPTT 240635Z AUTO 06006KT 4SM BR OVC003 M01/M02 A3002 RMK AO2 T10151021
KPTT 240615Z AUTO 07008KT 4SM BR OVC003 M01/M02 A3003 RMK AO2 T10151022
KPTT 240555Z AUTO 07007KT 4SM BR OVC003 M01/M02 A3004 RMK AO2 T10151022 11007 21015 410021015
KPTT 240535Z AUTO 06006KT 4SM BR OVC003 M01/M02 A3005 RMK AO2 T10151022
KPTT 240515Z AUTO 06008KT 3SM BR OVC003 M01/M02 A3006 RMK AO2 T10151022
KPTT 240455Z AUTO 07007KT 3SM BR OVC003 M01/M02 A3006 RMK AO2 T10151022
KPTT 240435Z AUTO 07008KT 3SM BR OVC003 M01/M02 A3007 RMK AO2 T10131020
KPTT 240415Z AUTO 06008KT 4SM BR OVC003 M01/M02 A3008 RMK AO2 T10141022
KPTT 240355Z AUTO 06008KT 3SM BR OVC003 M01/M02 A3009 RMK AO2 T10141023
KPTT 240335Z AUTO 07007KT 5SM BR OVC005 M01/M02 A3009 RMK AO2 T10151025
KPTT 240315Z AUTO 06008KT 10SM OVC005 M01/M03 A3010 RMK AO2 T10151026
KPTT 240255Z AUTO 08007KT 10SM OVC005 M01/M03 A3010 RMK AO2 T10141026
KPTT 240235Z AUTO 07009KT 10SM OVC007 M01/M03 A3010 RMK AO2 T10131026
KPTT 240215Z AUTO 08007KT 10SM OVC007 M01/M03 A3011 RMK AO2 T10131027
KPTT 240155Z AUTO 07007KT 10SM OVC007 M01/M03 A3011 RMK AO2 T10131030
KPTT 240135Z AUTO 07007KT 10SM OVC007 M01/M03 A3011 RMK AO2 T10101026
KPTT 240115Z AUTO 08008KT 10SM OVC009 M01/M03 A3011 RMK AO2 T10101026
KPTT 240055Z AUTO 07006KT 10SM OVC009 M01/M03 A3012 RMK AO2 T10101027
KPTT 240035Z AUTO 08007KT 10SM OVC009 M01/M03 A3012 RMK AO2 T10101026
KPTT 240015Z AUTO 09007KT 10SM OVC007 M01/M02 A3012 RMK AO2 T10081025
KPTT 232355Z AUTO 07008KT 10SM OVC007 M01/M02 A3012 RMK AO2 T10071025 11002 21008
KPTT 232335Z AUTO 06008KT 10SM OVC007 M01/M02 A3012 RMK AO2 T10061025
KPTT 232315Z AUTO 07006KT 10SM OVC007 00/M02 A3012 RMK AO2 T10051022
KPTT 232255Z AUTO 06008KT 10SM OVC007 00/M02 A3013 RMK AO2 LTG DSNT SE AND S T10051023
KPTT 232235Z AUTO 09007KT 10SM OVC009 00/M02 A3014 RMK AO2 T10041023
KPTT 232215Z AUTO 09007KT 10SM OVC009 00/M02 A3015 RMK AO2 T10031023
KPTT 232155Z AUTO 07005KT 10SM OVC009 00/M02 A3015 RMK AO2 T10051025
KPTT 232135Z AUTO 10005KT 10SM OVC009 00/M02 A3017 RMK AO2 T10051025
KPTT 232115Z AUTO 07005KT 10SM OVC009 00/M03 A3018 RMK AO2 T10051026
KPTT 232055Z AUTO 09004KT 10SM OVC009 00/M03 A3019 RMK AO2 T10051026
KPTT 232035Z AUTO 10005KT 10SM OVC009 00/M03 A3021 RMK AO2 T10051026
KPTT 232015Z AUTO 09004KT 10SM OVC009 00/M03 A3020 RMK AO2 T10041026
KPTT 231955Z AUTO 09004KT 10SM OVC009 00/M03 A3022 RMK AO2 LTG DSNT S T10051026
KPTT 231935Z AUTO 08005KT 10SM OVC009 00/M02 A3022 RMK AO2 T10041024
KPTT 231915Z AUTO 09005KT 10SM OVC009 M01/M03 A3023 RMK AO2 LTG DSNT S T10071028
KPTT 231855Z AUTO 09008KT 10SM OVC009 00/M02 A3023 RMK AO2 T10051025
KPTT 231835Z AUTO 07007KT 10SM OVC009 M01/M02 A3024 RMK AO2 T10061025
KPTT 231815Z AUTO 06007KT 10SM OVC009 00/M02 A3024 RMK AO2 T10051025
KPTT 231755Z AUTO 05007KT 10SM OVC009 M01/M03 A3023 RMK AO2 T10061027 11006 21015
KPTT 231735Z AUTO 05007KT 10SM OVC009 M01/M03 A3023 RMK AO2 T10091028
KPTT 231715Z AUTO 07007KT 10SM OVC009 M01/M03 A3024 RMK AO2 T10101029
KPTT 231655Z AUTO 06004KT 10SM OVC009 M01/M03 A3025 RMK AO2 T10101029
KPTT 231635Z AUTO 08007KT 10SM OVC007 M01/M03 A3025 RMK AO2 T10111027
KPTT 231615Z AUTO 07007KT 10SM OVC007 M01/M03 A3027 RMK AO2 T10121026
KPTT 231555Z AUTO 07006KT 10SM OVC007 M01/M03 A3027 RMK AO2 T10121026
KPTT 231535Z AUTO 07007KT 10SM OVC005 M01/M02 A3027 RMK AO2 T10131024
KPTT 231515Z AUTO 06005KT 10SM OVC003 M01/M02 A3027 RMK AO2 T10151023
KPTT 231455Z AUTO 04008KT 7SM OVC003 M01/M02 A3025 RMK AO2 LTG DSNT S T10151021
KPTT 231435Z AUTO 04007KT 7SM OVC003 M01/M02 A3024 RMK AO2 T10141020
KPTT 231415Z AUTO 07006KT 5SM BR OVC003 M01/M02 A3024 RMK AO2 T10121018
KPTT 231355Z AUTO 06004KT 5SM BR OVC005 M01/M02 A3025 RMK AO2 T10111017
KPTT 231335Z AUTO 05007KT 10SM OVC005 M01/M01 A3023 RMK AO2 T10101015
KPTT 231315Z AUTO 05007KT 7SM BKN005 BKN010 OVC013 M01/M01 A3021 RMK AO2 T10091014
KPTT 231255Z AUTO 00000KT 5SM BR OVC013 M01/M01 A3020 RMK AO2 T10101015
KPTT 231235Z AUTO 00000KT 5SM BR OVC013 M01/M01 A3019 RMK AO2 T10101015
KPTT 231215Z AUTO 00000KT 5SM BR SCT004 OVC013 M01/M01 A3019 RMK AO2 T10081013
KPTT 231155Z AUTO 07003KT 5SM BR BKN004 OVC009 M01/M01 A3019 RMK AO2 T10101015 11006 21013
KPTT 231135Z AUTO 06005KT 1 3/4SM BR OVC002 M01/M01 A3019 RMK AO2 T10101015
KPTT 231115Z AUTO 06005KT 1 1/2SM BR OVC002 M01/M01 A3019 RMK AO2 T10081013
KPTT 231055Z AUTO 05007KT 2 1/2SM BR OVC002 M01/M01 A3018 RMK AO2 LTG DSNT S T10071012
KPTT 231035Z AUTO 04007KT 3SM BR OVC002 M01/M01 A3018 RMK AO2 T10061011
KPTT 231015Z AUTO 04006KT 1 1/4SM BR OVC002 M01/M01 A3018 RMK AO2 T10061011
KPTT 230955Z AUTO 02004KT 3/4SM BR OVC002 M01/M01 A3018 RMK AO2 T10071012
KPTT 230935Z AUTO 02004KT 1SM BR OVC002 M01/M01 A3018 RMK AO2 T10071012
KPTT 230915Z AUTO 00000KT 1 1/4SM BR OVC002 M01/M01 A3018 RMK AO2 T10101015
KPTT 230855Z AUTO 00000KT 1 3/4SM BR OVC002 M01/M01 A3019 RMK AO2 T10101015
KPTT 230835Z AUTO 00000KT 2SM BR OVC002 M01/M01 A3019 RMK AO2 T10101015
KPTT 230815Z AUTO 00000KT 3SM BR BKN004 OVC009 M01/M01 A3019 RMK AO2 T10101015
KPTT 230755Z AUTO 00000KT 2SM BR OVC002 M01/M01 A3019 RMK AO2 T10101015
KPTT 230735Z AUTO 00000KT 2 1/2SM BR OVC002 M01/M01 A3018 RMK AO2 T10101015
KPTT 230715Z AUTO 00000KT 2 1/2SM BR OVC002 M01/M02 A3019 RMK AO2 T10111016
KPTT 230655Z AUTO 00000KT 1 3/4SM BR OVC002 M01/M02 A3019 RMK AO2 T10121017
KPTT 230635Z AUTO 00000KT 2SM BR OVC002 M01/M02 A3018 RMK AO2 T10121017
KPTT 230615Z AUTO 00000KT 2SM BR OVC002 M01/M02 A3016 RMK AO2 T10121017
KPTT 230555Z AUTO 00000KT 1 3/4SM BR OVC002 M01/M02 A3018 RMK AO2 T10131018 11012 21015 410051052
KPTT 230535Z AUTO 00000KT 2 1/2SM BR OVC002 M01/M02 A3016 RMK AO2 T10131018
KPTT 230515Z AUTO 00000KT 3/4SM BR OVC002 M01/M02 A3016 RMK AO2 T10141019
KPTT 230455Z AUTO 19003KT 1 1/2SM BR OVC002 M01/M02 A3015 RMK AO2 T10131018
KPTT 230435Z AUTO 19003KT 1 1/4SM BR OVC002 M01/M02 A3015 RMK AO2 T10141019
KPTT 230415Z AUTO 17004KT 3/4SM BR OVC002 M01/M02 A3014 RMK AO2 T10141019
KPTT 230355Z AUTO 19003KT 3/4SM BR OVC002 M01/M02 A3015 RMK AO2 T10121017
KPTT 230335Z AUTO 17004KT 1/2SM FZFG OVC002 M01/M02 A3014 RMK AO2 T10131018
KPTT 230315Z AUTO 18004KT 1/2SM FZFG OVC002 M01/M02 A3014 RMK AO2 T10131020
KPTT 230255Z AUTO 20004KT 1SM BR OVC002 M01/M02 A3014 RMK AO2 T10131020
KPTT 230235Z AUTO 22004KT 2SM BR OVC002 M01/M02 A3014 RMK AO2 T10131020
KPTT 230215Z AUTO 19005KT 3SM BR OVC002 M01/M02 A3013 RMK AO2 T10121018